createdAt,value
2017-06-25T00:00:45.121Z,18.66
2017-06-25T00:01:56.110Z,18.61
2017-06-25T00:03:07.341Z,18.57
2017-06-25T00:04:18.535Z,18.6
2017-06-25T00:05:29.517Z,18.6
2017-06-25T00:06:40.508Z,18.6
2017-06-25T00:07:51.491Z,18.6
2017-06-25T00:09:02.520Z,18.57
2017-06-25T00:10:13.514Z,18.57
2017-06-25T00:11:24.715Z,18.49
2017-06-25T00:12:35.692Z,18.49
2017-06-25T00:13:46.671Z,18.54
2017-06-25T00:14:57.709Z,18.57
2017-06-25T00:16:08.707Z,18.56
2017-06-25T00:17:19.690Z,18.63
2017-06-25T00:18:30.673Z,18.6
2017-06-25T00:19:41.863Z,18.56
2017-06-25T00:20:52.857Z,18.56
2017-06-25T00:22:03.839Z,18.56
2017-06-25T00:23:14.830Z,18.53
2017-06-25T00:24:26.019Z,18.56
2017-06-25T00:25:37.260Z,18.65
2017-06-25T00:26:48.241Z,18.61
2017-06-25T00:27:59.227Z,18.6
2017-06-25T00:29:10.217Z,18.57
2017-06-25T00:30:21.203Z,18.61
2017-06-25T00:31:32.650Z,18.6
2017-06-25T00:32:43.635Z,18.59
2017-06-25T00:33:54.827Z,18.51
2017-06-25T00:35:06.009Z,18.56
2017-06-25T00:36:16.996Z,18.56
2017-06-25T00:37:28.237Z,18.45
2017-06-25T00:38:39.223Z,18.53
2017-06-25T00:39:50.214Z,18.5
2017-06-25T00:41:01.405Z,18.54
2017-06-25T00:42:12.388Z,18.54
2017-06-25T00:43:23.428Z,18.56
2017-06-25T00:44:34.417Z,18.54
2017-06-25T00:45:45.399Z,18.56
2017-06-25T00:46:56.590Z,18.54
2017-06-25T00:48:07.578Z,18.59
2017-06-25T00:49:18.621Z,18.6
2017-06-25T00:50:29.605Z,18.6
2017-06-25T00:51:40.588Z,18.65
2017-06-25T00:52:51.768Z,18.56
2017-06-25T00:54:02.755Z,18.54
2017-06-25T00:55:13.790Z,18.54
2017-06-25T00:56:24.776Z,18.57
2017-06-25T00:57:35.760Z,18.49
2017-06-25T00:58:46.751Z,18.59
2017-06-25T00:59:57.961Z,18.45
2017-06-25T01:01:08.998Z,18.53
2017-06-25T01:02:19.983Z,18.5
2017-06-25T01:03:30.975Z,18.53
2017-06-25T01:04:41.956Z,18.49
2017-06-25T01:05:53.142Z,18.49
2017-06-25T01:07:04.191Z,18.51
2017-06-25T01:08:15.178Z,18.51
2017-06-25T01:09:26.169Z,18.54
2017-06-25T01:10:37.149Z,18.51
2017-06-25T01:11:48.122Z,18.54
2017-06-25T01:12:59.164Z,18.47
2017-06-25T01:14:10.151Z,18.47
2017-06-25T01:15:21.126Z,18.47
2017-06-25T01:16:32.101Z,18.5
2017-06-25T01:17:43.087Z,18.5
2017-06-25T01:18:54.120Z,18.53
2017-06-25T01:20:05.301Z,18.45
2017-06-25T01:21:16.273Z,18.53
2017-06-25T01:22:27.653Z,18.5
2017-06-25T01:23:38.839Z,18.51
2017-06-25T01:24:50.286Z,18.54
2017-06-25T01:26:01.472Z,18.44
2017-06-25T01:27:12.456Z,18.5
2017-06-25T01:28:23.446Z,18.5
2017-06-25T01:29:34.464Z,18.39
2017-06-25T01:30:45.445Z,18.39
2017-06-25T01:31:56.444Z,18.44
2017-06-25T01:33:07.436Z,18.44
2017-06-25T01:34:18.421Z,18.44
2017-06-25T01:35:29.456Z,18.45
2017-06-25T01:36:40.446Z,18.45
2017-06-25T01:37:51.629Z,18.42
2017-06-25T01:39:02.614Z,18.38
2017-06-25T01:40:13.598Z,18.41
2017-06-25T01:41:24.634Z,18.34
2017-06-25T01:42:35.606Z,18.39
2017-06-25T01:43:46.608Z,18.38
2017-06-25T01:44:57.593Z,18.29
2017-06-25T01:46:08.582Z,18.32
2017-06-25T01:47:19.811Z,18.29
2017-06-25T01:48:30.791Z,18.36
2017-06-25T01:49:41.780Z,18.32
2017-06-25T01:50:52.971Z,18.35
2017-06-25T01:52:03.968Z,18.34
2017-06-25T01:53:15.240Z,18.34
2017-06-25T01:54:26.221Z,18.29
2017-06-25T01:55:37.200Z,18.35
2017-06-25T01:56:48.183Z,18.29
2017-06-25T01:57:59.162Z,18.35
2017-06-25T01:59:10.194Z,18.32
2017-06-25T02:00:21.385Z,18.38
2017-06-25T02:01:32.375Z,18.36
2017-06-25T02:02:43.563Z,18.36
2017-06-25T02:03:54.554Z,18.35
2017-06-25T02:05:05.590Z,18.32
2017-06-25T02:06:16.570Z,18.34
2017-06-25T02:07:27.561Z,18.29
2017-06-25T02:08:38.542Z,18.31
2017-06-25T02:09:49.525Z,18.29
2017-06-25T02:11:00.509Z,18.32
2017-06-25T02:12:11.498Z,18.38
2017-06-25T02:13:22.486Z,18.32
2017-06-25T02:14:33.466Z,18.35
2017-06-25T02:15:44.509Z,18.38
2017-06-25T02:16:55.695Z,18.35
2017-06-25T02:18:06.707Z,18.29
2017-06-25T02:19:17.690Z,18.39
2017-06-25T02:20:28.877Z,18.36
2017-06-25T02:21:40.114Z,18.27
2017-06-25T02:22:51.298Z,18.26
2017-06-25T02:24:02.283Z,18.39
2017-06-25T02:25:13.492Z,18.41
2017-06-25T02:26:24.476Z,18.29
2017-06-25T02:27:35.508Z,18.31
2017-06-25T02:28:46.491Z,18.2
2017-06-25T02:29:57.496Z,18.34
2017-06-25T02:31:08.477Z,18.29
2017-06-25T02:32:19.665Z,18.31
2017-06-25T02:33:30.906Z,18.26
2017-06-25T02:34:41.896Z,18.38
2017-06-25T02:35:52.913Z,18.31
2017-06-25T02:37:03.891Z,18.24
2017-06-25T02:38:14.869Z,18.32
2017-06-25T02:39:25.903Z,18.34
2017-06-25T02:40:37.090Z,18.27
2017-06-25T02:41:48.072Z,18.44
2017-06-25T02:42:59.058Z,18.26
2017-06-25T02:44:10.248Z,18.36
2017-06-25T02:45:21.275Z,18.24
2017-06-25T02:46:32.263Z,18.24
2017-06-25T02:47:43.243Z,18.29
2017-06-25T02:48:54.234Z,18.35
2017-06-25T02:50:05.219Z,18.26
2017-06-25T02:51:16.246Z,18.32
2017-06-25T02:52:27.225Z,18.29
2017-06-25T02:53:38.411Z,18.19
2017-06-25T02:54:49.394Z,18.19
2017-06-25T02:56:00.377Z,18.19
2017-06-25T02:57:11.407Z,18.23
2017-06-25T02:58:22.393Z,18.31
2017-06-25T02:59:33.386Z,18.27
2017-06-25T03:00:44.392Z,18.32
2017-06-25T03:01:55.377Z,18.36
2017-06-25T03:03:06.405Z,18.26
2017-06-25T03:04:17.403Z,18.14
2017-06-25T03:05:28.388Z,18.2
2017-06-25T03:06:39.375Z,18.2
2017-06-25T03:07:50.361Z,18.26
2017-06-25T03:09:01.400Z,18.19
2017-06-25T03:10:12.384Z,18.21
2017-06-25T03:11:23.368Z,18.24
2017-06-25T03:12:34.554Z,18.24
2017-06-25T03:13:45.544Z,18.29
2017-06-25T03:14:56.577Z,18.2
2017-06-25T03:16:07.560Z,18.21
2017-06-25T03:17:18.538Z,18.23
2017-06-25T03:18:29.525Z,18.23
2017-06-25T03:19:40.508Z,18.23
2017-06-25T03:20:51.519Z,18.17
2017-06-25T03:22:02.520Z,18.16
2017-06-25T03:23:13.712Z,18.17
2017-06-25T03:24:24.692Z,18.23
2017-06-25T03:25:35.923Z,18.2
2017-06-25T03:26:47.119Z,18.21
2017-06-25T03:27:58.098Z,18.23
2017-06-25T03:29:09.081Z,18.17
2017-06-25T03:30:20.268Z,18.23
2017-06-25T03:31:31.299Z,18.19
2017-06-25T03:32:42.285Z,18.13
2017-06-25T03:33:53.270Z,18.13
2017-06-25T03:35:04.258Z,18.11
2017-06-25T03:36:15.236Z,18.19
2017-06-25T03:37:26.472Z,18.13
2017-06-25T03:38:37.466Z,18.13
2017-06-25T03:39:48.443Z,18.13
2017-06-25T03:40:59.428Z,18.19
2017-06-25T03:42:10.411Z,18.11
2017-06-25T03:43:21.441Z,18.19
2017-06-25T03:44:32.633Z,18.14
2017-06-25T03:45:43.614Z,18.2
2017-06-25T03:46:54.601Z,18.17
2017-06-25T03:48:05.594Z,18.08
2017-06-25T03:49:16.625Z,18.11
2017-06-25T03:50:27.610Z,18.08
2017-06-25T03:51:38.600Z,18.14
2017-06-25T03:52:49.590Z,18.13
2017-06-25T03:54:00.567Z,18.24
2017-06-25T03:55:11.599Z,18.14
2017-06-25T03:56:22.590Z,18.14
2017-06-25T03:57:33.582Z,18.11
2017-06-25T03:58:44.562Z,18.19
2017-06-25T03:59:55.548Z,18.21
2017-06-25T04:01:06.813Z,18.17
2017-06-25T04:02:18.002Z,18.11
2017-06-25T04:03:29.192Z,18.19
2017-06-25T04:04:40.205Z,18.13
2017-06-25T04:05:51.212Z,18.23
2017-06-25T04:07:02.447Z,18.17
2017-06-25T04:08:13.426Z,18.16
2017-06-25T04:09:24.407Z,18.1
2017-06-25T04:10:35.394Z,18.19
2017-06-25T04:11:46.572Z,18.19
2017-06-25T04:12:57.612Z,18.16
2017-06-25T04:14:08.601Z,18.14
2017-06-25T04:15:19.792Z,18.13
2017-06-25T04:16:30.775Z,18.17
2017-06-25T04:17:41.782Z,18.23
2017-06-25T04:18:53.050Z,18.16
2017-06-25T04:20:04.038Z,18.14
2017-06-25T04:21:15.430Z,18.19
2017-06-25T04:22:26.422Z,18.17
2017-06-25T04:23:37.612Z,18.19
2017-06-25T04:24:48.651Z,18.14
2017-06-25T04:25:59.634Z,18.16
2017-06-25T04:27:10.630Z,18.17
2017-06-25T04:28:21.819Z,18.13
2017-06-25T04:29:32.796Z,18.16
2017-06-25T04:30:43.784Z,18.06
2017-06-25T04:31:54.770Z,18.16
2017-06-25T04:33:05.757Z,18.16
2017-06-25T04:34:16.744Z,18.19
2017-06-25T04:35:27.783Z,18.14
2017-06-25T04:36:39.002Z,18.19
2017-06-25T04:37:49.987Z,18.11
2017-06-25T04:39:00.964Z,18.16
2017-06-25T04:40:11.947Z,18.16
2017-06-25T04:41:22.984Z,18.11
2017-06-25T04:42:34.169Z,18.2
2017-06-25T04:43:45.163Z,18.19
2017-06-25T04:44:56.356Z,18.21
2017-06-25T04:46:07.538Z,18.2
2017-06-25T04:47:18.794Z,18.2
2017-06-25T04:48:29.781Z,18.19
2017-06-25T04:49:40.760Z,18.14
2017-06-25T04:50:51.953Z,18.2
2017-06-25T04:52:03.147Z,18.14
2017-06-25T04:53:14.190Z,18.17
2017-06-25T04:54:25.174Z,18.21
2017-06-25T04:55:36.163Z,18.23
2017-06-25T04:56:47.180Z,18.2
2017-06-25T04:57:58.160Z,18.17
2017-06-25T04:59:09.187Z,18.14
2017-06-25T05:00:20.171Z,18.13
2017-06-25T05:01:31.162Z,18.19
2017-06-25T05:02:42.344Z,18.23
2017-06-25T05:03:53.331Z,18.23
2017-06-25T05:05:04.370Z,18.24
2017-06-25T05:06:15.550Z,18.19
2017-06-25T05:07:26.533Z,18.19
2017-06-25T05:08:37.715Z,18.19
2017-06-25T05:09:48.708Z,18.19
2017-06-25T05:10:59.948Z,18.2
2017-06-25T05:12:10.931Z,18.19
2017-06-25T05:13:21.914Z,18.26
2017-06-25T05:14:32.902Z,18.29
2017-06-25T05:15:44.140Z,18.36
2017-06-25T05:16:55.334Z,18.32
2017-06-25T05:18:06.513Z,18.35
2017-06-25T05:19:17.499Z,18.41
2017-06-25T05:20:28.492Z,18.34
2017-06-25T05:21:39.532Z,18.35
2017-06-25T05:22:50.724Z,18.45
2017-06-25T05:24:01.712Z,18.36
2017-06-25T05:25:12.695Z,18.24
2017-06-25T05:26:23.672Z,18.35
2017-06-25T05:27:34.904Z,18.34
2017-06-25T05:28:45.890Z,18.36
2017-06-25T05:29:56.878Z,18.35
2017-06-25T05:31:07.860Z,18.32
2017-06-25T05:32:18.854Z,18.36
2017-06-25T05:33:29.895Z,18.29
2017-06-25T05:34:41.079Z,18.34
2017-06-25T05:35:52.069Z,18.27
2017-06-25T05:37:03.051Z,18.39
2017-06-25T05:38:14.045Z,18.31
2017-06-25T05:39:25.089Z,18.36
2017-06-25T05:40:36.076Z,18.36
2017-06-25T05:41:47.265Z,18.36
2017-06-25T05:42:58.459Z,18.29
2017-06-25T05:44:09.439Z,18.34
2017-06-25T05:45:20.476Z,18.35
2017-06-25T05:46:31.463Z,18.35
2017-06-25T05:47:42.453Z,18.34
2017-06-25T05:48:53.432Z,18.35
2017-06-25T05:50:04.430Z,18.36
2017-06-25T05:51:15.470Z,18.35
2017-06-25T05:52:26.451Z,18.36
2017-06-25T05:53:37.438Z,18.44
2017-06-25T05:54:48.624Z,18.5
2017-06-25T05:55:59.608Z,18.44
2017-06-25T05:57:10.643Z,18.49
2017-06-25T05:58:21.834Z,18.41
2017-06-25T05:59:32.825Z,18.41
2017-06-25T06:00:44.001Z,18.49
2017-06-25T06:01:54.985Z,18.45
2017-06-25T06:03:06.025Z,18.44
2017-06-25T06:04:17.208Z,18.53
2017-06-25T06:05:28.192Z,18.5
2017-06-25T06:06:39.174Z,18.53
2017-06-25T06:07:50.375Z,18.54
2017-06-25T06:09:01.411Z,18.54
2017-06-25T06:10:12.597Z,18.61
2017-06-25T06:11:23.593Z,18.63
2017-06-25T06:12:34.578Z,18.61
2017-06-25T06:13:45.566Z,18.65
2017-06-25T06:14:56.603Z,18.65
2017-06-25T06:16:07.580Z,18.61
2017-06-25T06:17:18.973Z,18.65
2017-06-25T06:18:29.965Z,18.6
2017-06-25T06:19:40.953Z,18.61
2017-06-25T06:20:51.934Z,18.6
2017-06-25T06:22:03.118Z,18.71
2017-06-25T06:23:14.096Z,18.68
2017-06-25T06:24:25.292Z,18.69
2017-06-25T06:25:36.330Z,18.76
2017-06-25T06:26:47.712Z,18.82
2017-06-25T06:27:58.707Z,18.79
2017-06-25T06:29:09.702Z,18.86
2017-06-25T06:30:20.679Z,18.79
2017-06-25T06:31:31.722Z,18.93
2017-06-25T06:32:42.718Z,18.91
2017-06-25T06:33:53.706Z,18.94
2017-06-25T06:35:04.708Z,19.09
2017-06-25T06:36:15.694Z,19.06
2017-06-25T06:37:26.743Z,19.09
2017-06-25T06:38:37.931Z,19.13
2017-06-25T06:39:49.118Z,19.12
2017-06-25T06:41:00.311Z,19.23
2017-06-25T06:42:11.506Z,19.23
2017-06-25T06:43:22.543Z,19.23
2017-06-25T06:44:33.733Z,19.23
2017-06-25T06:45:44.724Z,19.3
2017-06-25T06:46:55.713Z,19.3
2017-06-25T06:48:07.099Z,19.35
2017-06-25T06:49:18.137Z,19.47
2017-06-25T06:50:29.123Z,19.46
2017-06-25T06:51:40.232Z,19.45
2017-06-25T06:52:51.216Z,19.47
2017-06-25T06:54:02.217Z,19.46
2017-06-25T06:55:13.256Z,19.4
2017-06-25T06:56:24.239Z,19.34
2017-06-25T06:57:35.225Z,19.3
2017-06-25T06:58:46.218Z,19.27
2017-06-25T06:59:57.195Z,19.3
2017-06-25T07:01:08.324Z,19.28
2017-06-25T07:02:19.342Z,19.23
2017-06-25T07:03:30.528Z,19.23
2017-06-25T07:04:41.504Z,19.19
2017-06-25T07:05:52.492Z,19.25
2017-06-25T07:07:03.482Z,19.25
2017-06-25T07:08:14.478Z,19.27
2017-06-25T07:09:25.465Z,19.2
2017-06-25T07:10:36.464Z,19.25
2017-06-25T07:11:47.447Z,19.37
2017-06-25T07:12:58.435Z,19.37
2017-06-25T07:14:09.634Z,19.37
2017-06-25T07:15:20.620Z,19.4
2017-06-25T07:16:31.660Z,19.4
2017-06-25T07:17:42.658Z,19.46
2017-06-25T07:18:53.644Z,19.46
2017-06-25T07:20:04.636Z,19.55
2017-06-25T07:21:15.619Z,19.64
2017-06-25T07:22:26.659Z,19.55
2017-06-25T07:23:37.652Z,19.68
2017-06-25T07:24:48.636Z,19.65
2017-06-25T07:25:59.634Z,19.65
2017-06-25T07:27:10.626Z,19.78
2017-06-25T07:28:21.863Z,19.74
2017-06-25T07:29:32.852Z,19.74
2017-06-25T07:30:44.045Z,19.82
2017-06-25T07:31:55.037Z,19.83
2017-06-25T07:33:06.020Z,19.8
2017-06-25T07:34:17.058Z,19.87
2017-06-25T07:35:28.039Z,19.9
2017-06-25T07:36:39.043Z,19.95
2017-06-25T07:37:50.062Z,20.01
2017-06-25T07:39:01.046Z,19.95
2017-06-25T07:40:12.285Z,19.9
2017-06-25T07:41:23.472Z,20.01
2017-06-25T07:42:34.458Z,20.01
2017-06-25T07:43:45.443Z,19.93
2017-06-25T07:44:56.431Z,19.86
2017-06-25T07:46:07.474Z,19.95
2017-06-25T07:47:18.667Z,19.9
2017-06-25T07:48:29.653Z,19.92
2017-06-25T07:49:40.666Z,19.87
2017-06-25T07:50:51.656Z,19.93
2017-06-25T07:52:02.900Z,19.95
2017-06-25T07:53:13.887Z,20.01
2017-06-25T07:54:24.878Z,20.02
2017-06-25T07:55:35.864Z,19.86
2017-06-25T07:56:46.850Z,19.95
2017-06-25T07:57:58.093Z,19.93
2017-06-25T07:59:09.079Z,19.8
2017-06-25T08:00:20.069Z,19.97
2017-06-25T08:01:31.060Z,19.95
2017-06-25T08:02:42.056Z,19.97
2017-06-25T08:03:53.103Z,20.08
2017-06-25T08:05:04.104Z,20.08
2017-06-25T08:06:15.099Z,20.07
2017-06-25T08:07:26.085Z,20.18
2017-06-25T08:08:37.082Z,20.26
2017-06-25T08:09:48.125Z,20.25
2017-06-25T08:10:59.106Z,20.27
2017-06-25T08:12:10.093Z,20.23
2017-06-25T08:13:21.086Z,20.32
2017-06-25T08:14:32.283Z,20.23
2017-06-25T08:15:43.326Z,20.27
2017-06-25T08:16:54.310Z,20.18
2017-06-25T08:18:05.301Z,20.27
2017-06-25T08:19:16.501Z,20.19
2017-06-25T08:20:27.698Z,20.18
2017-06-25T08:21:38.733Z,20.11
2017-06-25T08:22:49.721Z,20.07
2017-06-25T08:24:00.701Z,19.92
2017-06-25T08:25:11.690Z,19.97
2017-06-25T08:26:22.680Z,19.78
2017-06-25T08:27:33.727Z,19.53
2017-06-25T08:28:44.915Z,19.3
2017-06-25T08:29:56.100Z,19.24
2017-06-25T08:31:07.078Z,19.07
2017-06-25T08:32:18.072Z,18.9
2017-06-25T08:33:29.112Z,18.89
2017-06-25T08:34:40.104Z,18.71
2017-06-25T08:35:51.086Z,18.72
2017-06-25T08:37:02.272Z,18.63
2017-06-25T08:38:13.268Z,18.54
2017-06-25T08:39:24.309Z,18.49
2017-06-25T08:40:35.296Z,18.45
2017-06-25T08:41:46.280Z,18.51
2017-06-25T08:42:57.277Z,18.39
2017-06-25T08:44:08.269Z,18.5
2017-06-25T08:45:19.303Z,18.45
2017-06-25T08:46:30.497Z,18.53
2017-06-25T08:47:41.485Z,18.45
2017-06-25T08:48:52.512Z,18.34
2017-06-25T08:50:03.496Z,18.44
2017-06-25T08:51:14.546Z,18.39
2017-06-25T08:52:25.741Z,18.44
2017-06-25T08:53:36.730Z,18.49
2017-06-25T08:54:47.717Z,18.45
2017-06-25T08:55:58.718Z,18.29
2017-06-25T08:57:09.757Z,18.5
2017-06-25T08:58:20.945Z,18.44
2017-06-25T08:59:31.934Z,18.41
2017-06-25T09:00:43.119Z,18.44
2017-06-25T09:01:54.108Z,18.49
2017-06-25T09:03:05.343Z,18.5
2017-06-25T09:04:16.932Z,18.53
2017-06-25T09:05:27.927Z,18.57
2017-06-25T09:06:38.923Z,18.57
2017-06-25T09:07:49.911Z,18.71
2017-06-25T09:09:00.952Z,18.82
2017-06-25T09:10:11.947Z,18.91
2017-06-25T09:11:22.934Z,18.9
2017-06-25T09:12:33.936Z,18.97
2017-06-25T09:13:44.920Z,19.07
2017-06-25T09:14:55.959Z,19.16
2017-06-25T09:16:06.946Z,19.24
2017-06-25T09:17:18.136Z,19.4
2017-06-25T09:18:29.130Z,19.61
2017-06-25T09:19:40.127Z,19.65
2017-06-25T09:20:51.368Z,19.8
2017-06-25T09:22:02.364Z,19.8
2017-06-25T09:23:13.364Z,19.78
2017-06-25T09:24:24.364Z,19.79
2017-06-25T09:25:35.357Z,19.65
2017-06-25T09:26:46.393Z,19.68
2017-06-25T09:27:57.592Z,19.67
2017-06-25T09:29:08.579Z,19.7
2017-06-25T09:30:19.578Z,19.56
2017-06-25T09:31:30.567Z,19.64
2017-06-25T09:32:41.617Z,19.5
2017-06-25T09:33:52.607Z,19.45
2017-06-25T09:35:03.595Z,19.47
2017-06-25T09:36:14.576Z,19.42
2017-06-25T09:37:25.773Z,19.42
2017-06-25T09:38:36.762Z,19.37
2017-06-25T09:39:47.745Z,19.34
2017-06-25T09:40:58.946Z,19.38
2017-06-25T09:42:10.142Z,19.43
2017-06-25T09:43:21.178Z,19.38
2017-06-25T09:44:32.365Z,19.37
2017-06-25T09:45:43.560Z,19.4
2017-06-25T09:46:54.549Z,19.52
2017-06-25T09:48:05.540Z,19.57
2017-06-25T09:49:16.531Z,19.68
2017-06-25T09:50:27.721Z,19.7
2017-06-25T09:51:38.921Z,19.74
2017-06-25T09:52:49.913Z,19.82
2017-06-25T09:54:00.960Z,19.82
2017-06-25T09:55:11.951Z,19.92
2017-06-25T09:56:22.949Z,19.97
2017-06-25T09:57:33.940Z,19.9
2017-06-25T09:58:44.936Z,19.92
2017-06-25T09:59:55.979Z,19.95
2017-06-25T10:01:06.971Z,20.01
2017-06-25T10:02:17.960Z,20
2017-06-25T10:03:28.956Z,20.11
2017-06-25T10:04:39.946Z,20.07
2017-06-25T10:05:51.192Z,19.98
2017-06-25T10:07:02.197Z,19.93
2017-06-25T10:08:13.391Z,19.93
2017-06-25T10:09:24.379Z,19.93
2017-06-25T10:10:35.366Z,19.89
2017-06-25T10:11:46.419Z,19.9
2017-06-25T10:12:57.412Z,19.83
2017-06-25T10:14:08.618Z,19.78
2017-06-25T10:15:19.608Z,19.63
2017-06-25T10:16:30.800Z,19.56
2017-06-25T10:17:41.857Z,19.57
2017-06-25T10:18:52.846Z,19.45
2017-06-25T10:20:04.042Z,19.47
2017-06-25T10:21:15.028Z,19.31
2017-06-25T10:22:26.015Z,19.25
2017-06-25T10:23:37.064Z,19.19
2017-06-25T10:24:48.053Z,19.07
2017-06-25T10:25:59.453Z,19.16
2017-06-25T10:27:10.446Z,19.15
2017-06-25T10:28:22.036Z,18.97
2017-06-25T10:29:33.074Z,18.93
2017-06-25T10:30:44.055Z,18.89
2017-06-25T10:31:55.039Z,18.87
2017-06-25T10:33:06.225Z,18.81
2017-06-25T10:34:17.420Z,18.75
2017-06-25T10:35:28.463Z,18.71
2017-06-25T10:36:39.651Z,18.71
2017-06-25T10:37:50.841Z,18.66
2017-06-25T10:39:01.830Z,18.59
2017-06-25T10:40:12.826Z,18.65
2017-06-25T10:41:24.072Z,18.63
2017-06-25T10:42:35.060Z,18.63
2017-06-25T10:43:46.043Z,18.61
2017-06-25T10:44:57.037Z,18.6
2017-06-25T10:46:08.019Z,18.61
2017-06-25T10:47:19.055Z,18.6
2017-06-25T10:48:30.050Z,18.6
2017-06-25T10:49:41.060Z,18.63
2017-06-25T10:50:52.450Z,18.6
2017-06-25T10:52:03.446Z,18.65
2017-06-25T10:53:14.485Z,18.72
2017-06-25T10:54:25.472Z,18.75
2017-06-25T10:55:36.461Z,18.78
2017-06-25T10:56:47.447Z,18.75
2017-06-25T10:57:58.435Z,18.82
2017-06-25T10:59:09.475Z,18.78
2017-06-25T11:00:20.671Z,18.79
2017-06-25T11:01:31.873Z,18.82
2017-06-25T11:02:43.058Z,18.9
2017-06-25T11:03:54.244Z,18.81
2017-06-25T11:05:05.335Z,18.93
2017-06-25T11:06:16.315Z,18.97
2017-06-25T11:07:27.316Z,18.91
2017-06-25T11:08:38.312Z,18.91
2017-06-25T11:09:49.501Z,18.93
2017-06-25T11:11:00.540Z,18.94
2017-06-25T11:12:11.531Z,19.02
2017-06-25T11:13:22.559Z,18.91
2017-06-25T11:14:33.756Z,19.09
2017-06-25T11:15:44.945Z,18.99
2017-06-25T11:16:55.978Z,19.12
2017-06-25T11:18:06.962Z,19.12
2017-06-25T11:19:17.957Z,19.19
2017-06-25T11:20:28.950Z,19.24
2017-06-25T11:21:39.946Z,19.3
2017-06-25T11:22:50.989Z,19.31
2017-06-25T11:24:02.177Z,19.28
2017-06-25T11:25:13.177Z,19.37
2017-06-25T11:26:24.173Z,19.45
2017-06-25T11:27:35.164Z,19.4
2017-06-25T11:28:46.210Z,19.55
2017-06-25T11:29:57.196Z,19.61
2017-06-25T11:31:08.185Z,19.7
2017-06-25T11:32:19.385Z,19.68
2017-06-25T11:33:30.372Z,19.74
2017-06-25T11:34:41.615Z,19.8
2017-06-25T11:35:52.607Z,19.93
2017-06-25T11:37:03.594Z,19.85
2017-06-25T11:38:14.789Z,19.92
2017-06-25T11:39:25.977Z,20.08
2017-06-25T11:40:37.021Z,20.11
2017-06-25T11:41:48.221Z,20.23
2017-06-25T11:42:59.216Z,20.38
2017-06-25T11:44:10.220Z,20.56
2017-06-25T11:45:21.224Z,20.63
2017-06-25T11:46:32.260Z,20.91
2017-06-25T11:47:43.266Z,21.03
2017-06-25T11:48:54.462Z,21.27
2017-06-25T11:50:05.465Z,21.46
2017-06-25T11:51:16.458Z,21.74
2017-06-25T11:52:27.705Z,21.74
2017-06-25T11:53:38.901Z,21.78
2017-06-25T11:54:49.898Z,21.68
2017-06-25T11:56:01.099Z,21.66
2017-06-25T11:57:12.100Z,21.71
2017-06-25T11:58:23.151Z,21.76
2017-06-25T11:59:34.346Z,21.64
2017-06-25T12:00:45.355Z,21.51
2017-06-25T12:01:56.356Z,21.36
2017-06-25T12:03:07.360Z,21.33
2017-06-25T12:04:18.395Z,21.34
2017-06-25T12:05:29.382Z,21.16
2017-06-25T12:06:40.389Z,20.93
2017-06-25T12:07:51.579Z,20.93
2017-06-25T12:09:02.607Z,20.83
2017-06-25T12:10:13.659Z,20.82
2017-06-25T12:11:24.855Z,20.83
2017-06-25T12:12:36.060Z,20.82
2017-06-25T12:13:47.049Z,20.93
2017-06-25T12:14:58.041Z,20.86
2017-06-25T12:16:09.081Z,20.9
2017-06-25T12:17:20.074Z,20.93
2017-06-25T12:18:31.083Z,20.88
2017-06-25T12:19:42.073Z,20.82
2017-06-25T12:20:53.062Z,20.86
2017-06-25T12:22:04.112Z,20.81
2017-06-25T12:23:15.103Z,20.79
2017-06-25T12:24:26.297Z,20.76
2017-06-25T12:25:37.295Z,20.78
2017-06-25T12:26:48.486Z,20.79
2017-06-25T12:27:59.529Z,20.81
2017-06-25T12:29:10.533Z,20.86
2017-06-25T12:30:21.524Z,20.91
2017-06-25T12:31:32.520Z,21.03
2017-06-25T12:32:43.508Z,21.25
2017-06-25T12:33:54.556Z,21.27
2017-06-25T12:35:05.548Z,21.21
2017-06-25T12:36:16.532Z,21.16
2017-06-25T12:37:27.528Z,21.28
2017-06-25T12:38:38.522Z,21.27
2017-06-25T12:39:49.764Z,21.18
2017-06-25T12:41:00.757Z,21.18
2017-06-25T12:42:11.954Z,21.08
2017-06-25T12:43:22.950Z,21.12
2017-06-25T12:44:33.945Z,21.12
2017-06-25T12:45:45.002Z,21.04
2017-06-25T12:46:55.996Z,21
2017-06-25T12:48:06.984Z,21
2017-06-25T12:49:18.185Z,21.01
2017-06-25T12:50:29.175Z,20.96
2017-06-25T12:51:40.211Z,20.94
2017-06-25T12:52:51.209Z,21.09
2017-06-25T12:54:02.209Z,21.09
2017-06-25T12:55:13.206Z,21.06
2017-06-25T12:56:24.408Z,21.06
2017-06-25T12:57:35.451Z,21.03
2017-06-25T12:58:46.646Z,21.03
2017-06-25T12:59:57.643Z,21.06
2017-06-25T13:01:08.632Z,21.01
2017-06-25T13:02:19.626Z,20.91
2017-06-25T13:03:30.624Z,20.91
2017-06-25T13:04:41.626Z,20.88
2017-06-25T13:05:52.625Z,20.75
2017-06-25T13:07:03.625Z,20.75
2017-06-25T13:08:14.671Z,20.71
2017-06-25T13:09:25.659Z,20.66
2017-06-25T13:10:36.655Z,20.54
2017-06-25T13:11:47.838Z,20.46
2017-06-25T13:12:58.830Z,20.4
2017-06-25T13:14:10.074Z,20.37
2017-06-25T13:15:21.061Z,20.38
2017-06-25T13:16:32.258Z,20.27
2017-06-25T13:17:43.445Z,20.25
2017-06-25T13:18:54.438Z,20.19
2017-06-25T13:20:05.489Z,20.18
2017-06-25T13:21:16.476Z,20.12
2017-06-25T13:22:27.477Z,20.12
2017-06-25T13:23:38.459Z,20.07
2017-06-25T13:24:49.453Z,20.04
2017-06-25T13:26:00.690Z,19.95
2017-06-25T13:27:11.680Z,19.98
2017-06-25T13:28:22.675Z,19.93
2017-06-25T13:29:33.870Z,19.93
2017-06-25T13:30:44.868Z,20.04
2017-06-25T13:31:55.922Z,20
2017-06-25T13:33:07.109Z,20.02
2017-06-25T13:34:18.101Z,19.92
2017-06-25T13:35:29.092Z,20.04
2017-06-25T13:36:40.104Z,20
2017-06-25T13:37:51.156Z,19.89
2017-06-25T13:39:02.147Z,19.95
2017-06-25T13:40:13.141Z,19.98
2017-06-25T13:41:24.139Z,20.05
2017-06-25T13:42:35.333Z,20.15
2017-06-25T13:43:46.377Z,20.23
2017-06-25T13:44:57.361Z,20.3
2017-06-25T13:46:08.349Z,20.46
2017-06-25T13:47:19.335Z,20.46
2017-06-25T13:48:30.334Z,20.54
2017-06-25T13:49:41.530Z,20.67
2017-06-25T13:50:52.516Z,20.66
2017-06-25T13:52:03.501Z,20.67
2017-06-25T13:53:14.487Z,20.64
2017-06-25T13:54:25.893Z,20.51
2017-06-25T13:55:36.929Z,20.44
2017-06-25T13:56:47.915Z,20.35
2017-06-25T13:57:59.109Z,20.4
2017-06-25T13:59:10.097Z,20.32
2017-06-25T14:00:21.136Z,20.35
2017-06-25T14:01:32.129Z,20.23
2017-06-25T14:02:43.320Z,20.26
2017-06-25T14:03:54.310Z,20.16
2017-06-25T14:05:05.305Z,20.1
2017-06-25T14:06:16.346Z,20.05
2017-06-25T14:07:27.336Z,19.98
2017-06-25T14:08:38.327Z,19.95
2017-06-25T14:09:49.518Z,19.95
2017-06-25T14:11:00.498Z,20.02
2017-06-25T14:12:11.539Z,20
2017-06-25T14:13:22.528Z,19.92
2017-06-25T14:14:33.511Z,19.87
2017-06-25T14:15:44.492Z,19.87
2017-06-25T14:16:55.509Z,19.87
2017-06-25T14:18:06.552Z,19.89
2017-06-25T14:19:17.550Z,19.95
2017-06-25T14:20:28.540Z,19.93
2017-06-25T14:21:39.531Z,19.89
2017-06-25T14:22:50.526Z,19.97
2017-06-25T14:24:01.765Z,19.89
2017-06-25T14:25:12.752Z,19.92
2017-06-25T14:26:23.739Z,19.95
2017-06-25T14:27:34.729Z,19.97
2017-06-25T14:28:45.739Z,19.9
2017-06-25T14:29:56.971Z,19.89
2017-06-25T14:31:07.966Z,19.92
2017-06-25T14:32:19.159Z,20.15
2017-06-25T14:33:30.152Z,20.11
2017-06-25T14:34:41.135Z,20.16
2017-06-25T14:35:52.125Z,20.22
2017-06-25T14:37:03.127Z,20.23
2017-06-25T14:38:14.129Z,20.26
2017-06-25T14:39:25.126Z,20.19
2017-06-25T14:40:36.175Z,20.32
2017-06-25T14:41:47.170Z,20.3
2017-06-25T14:42:58.363Z,20.4
2017-06-25T14:44:09.361Z,20.49
2017-06-25T14:45:20.352Z,20.58
2017-06-25T14:46:31.399Z,20.56
2017-06-25T14:47:42.401Z,20.68
2017-06-25T14:48:53.403Z,20.74
2017-06-25T14:50:04.407Z,20.78
2017-06-25T14:51:15.398Z,20.81
2017-06-25T14:52:26.441Z,20.85
2017-06-25T14:53:37.443Z,20.85
2017-06-25T14:54:48.443Z,20.88
2017-06-25T14:55:59.833Z,20.74
2017-06-25T14:57:10.823Z,20.66
2017-06-25T14:58:22.070Z,20.58
2017-06-25T14:59:33.062Z,20.48
2017-06-25T15:00:44.047Z,20.38
2017-06-25T15:01:55.037Z,20.4
2017-06-25T15:03:06.027Z,20.34
2017-06-25T15:04:17.077Z,20.32
2017-06-25T15:05:28.273Z,20.25
2017-06-25T15:06:39.287Z,20.27
2017-06-25T15:07:50.276Z,20.27
2017-06-25T15:09:01.271Z,20.22
2017-06-25T15:10:12.263Z,20.18
2017-06-25T15:11:23.259Z,20.2
2017-06-25T15:12:34.253Z,20.25
2017-06-25T15:13:45.252Z,20.19
2017-06-25T15:14:56.233Z,20.2
2017-06-25T15:16:07.288Z,20.25
2017-06-25T15:17:18.282Z,20.29
2017-06-25T15:18:29.281Z,20.32